Dades meteomassalio
Diari Summary for Agost 19, 2017 Units:  Metric    English   Both
« Previous Day
Next Day »
Diari Semanal Mensual Anual Personalitzat
  Maxima: Minima: Mijana:
Temperatura: -17.8 °C -7 °C -4.1 °C
Rosada: -17.8 °C -11 °C -10.3 °C
Humitat: Humidity % 31 % 51 %
Velocitat del vent: 0 km/h 0 km/h 16.1 km/h
Racha vent: 0 km/h - -
Vent:- - West
Pressio: 0 hPa 33098.2 hPa -
Pluja: 0 mm    
Historical Graphs
 
 
Tabular Data for Agost 19, 2017
Time Temperature Dew Point Pressure Wind Wind Speed Wind Gust Humidity Rainfall Rate (Hourly) solar Conditions
-17.8 °C -17.8 °C 0 hPa Calm     Humidity % 0 mm SolarRadiationWatts/m^2 W/m2 Conditions
00:01 -3.8 °C -9.7 °C 34418.7 hPa WNW 38.8 km/h 38.8 km/h 52 % 0 mm 0.0 W/m2 CLR
00:06 -3.9 °C -9.8 °C 34418.7 hPa WSW 20.8 km/h 20.8 km/h 52 % 0 mm 0.0 W/m2 CLR
00:11 -3.9 °C -9.6 °C 34418.7 hPa West 36.2 km/h 36.2 km/h 53 % 0 mm 0.0 W/m2 CLR
00:16 -4 °C -9.7 °C 34418.7 hPa West 23.8 km/h 23.8 km/h 53 % 0 mm 0.0 W/m2 CLR
00:21 -4.1 °C -9.7 °C 34428.8 hPa West 17.9 km/h 17.9 km/h 53 % 0 mm 0.0 W/m2 CLR
00:26 -4.1 °C -9.6 °C 34428.8 hPa WSW 32.8 km/h 32.8 km/h 54 % 0 mm 0.0 W/m2 CLR
00:31 -4.1 °C -9.6 °C 34428.8 hPa West 12.9 km/h 12.9 km/h 54 % 0 mm 0.0 W/m2 CLR
00:36 -4.1 °C -9.7 °C 34428.8 hPa Calm     54 % 0 mm 0.0 W/m2 CLR
00:41 -4.2 °C -9.7 °C 34428.8 hPa West 20.9 km/h 20.9 km/h 54 % 0 mm 0.0 W/m2 CLR
00:46 -4.2 °C -9.7 °C 34428.8 hPa SW 15 km/h 15 km/h 54 % 0 mm 0.0 W/m2 CLR
00:51 -4.2 °C -9.7 °C 34428.8 hPa West 20.9 km/h 20.9 km/h 54 % 0 mm 0.0 W/m2 CLR
00:56 -4.2 °C -9.6 °C 34428.8 hPa WNW 32.8 km/h 32.8 km/h 55 % 0 mm 0.0 W/m2 CLR
01:01 -4.3 °C -9.6 °C 34428.8 hPa WNW 44.7 km/h 44.7 km/h 55 % 0 mm 0.0 W/m2 CLR
01:06 -4.3 °C -9.7 °C 34428.8 hPa WSW 11.9 km/h 11.9 km/h 55 % 0 mm 0.0 W/m2 CLR
01:11 -4.4 °C -9.7 °C 34428.8 hPa West 32.8 km/h 32.8 km/h 55 % 0 mm 0.0 W/m2 CLR
01:16 -4.4 °C -9.6 °C 34442.4 hPa West 41.7 km/h 41.7 km/h 56 % 0 mm 0.0 W/m2 CLR
01:21 -4.5 °C -9.7 °C 34442.4 hPa West 29.8 km/h 29.8 km/h 56 % 0 mm 0.0 W/m2 CLR
01:26 -4.6 °C -9.6 °C 34442.4 hPa West 23.8 km/h 23.8 km/h 57 % 0 mm 0.0 W/m2 CLR
01:31 -4.6 °C -9.6 °C 34442.4 hPa West 36.2 km/h 36.2 km/h 57 % 0 mm 0.0 W/m2 CLR
01:36 -4.7 °C -9.7 °C 34442.4 hPa WNW 29.8 km/h 29.8 km/h 57 % 0 mm 0.0 W/m2 CLR
01:41 -4.7 °C -9.7 °C 34442.4 hPa WSW 26.9 km/h 26.9 km/h 57 % 0 mm 0.0 W/m2 CLR
01:46 -4.8 °C -9.6 °C 34442.4 hPa West 23.8 km/h 23.8 km/h 58 % 0 mm 0.0 W/m2 CLR
01:51 -4.8 °C -9.6 °C 34442.4 hPa West 38.8 km/h 38.8 km/h 58 % 0 mm 0.0 W/m2 CLR
01:56 -4.8 °C -9.7 °C 34442.4 hPa WSW 29.8 km/h 29.8 km/h 58 % 0 mm 0.0 W/m2 CLR
02:01 -4.9 °C -9.7 °C 34442.4 hPa WNW 29.8 km/h 29.8 km/h 58 % 0 mm 0.0 W/m2 CLR
02:06 -4.9 °C -9.6 °C 34452.6 hPa SW 9 km/h 9 km/h 59 % 0 mm 0.0 W/m2 CLR
02:11 -5 °C -9.8 °C 34442.4 hPa WNW 29.8 km/h 29.8 km/h 58 % 0 mm 0.0 W/m2 CLR
02:16 -5.1 °C -9.9 °C 34452.6 hPa West 32.8 km/h 32.8 km/h 58 % 0 mm 0.0 W/m2 CLR
02:21 -5.1 °C -9.8 °C 34452.6 hPa West 7.7 km/h 7.7 km/h 59 % 0 mm 0.0 W/m2 CLR
02:26 -5.2 °C -9.9 °C 34452.6 hPa WNW 3.1 km/h 3.1 km/h 59 % 0 mm 0.0 W/m2 CLR
02:31 -5.2 °C -9.9 °C 34442.4 hPa West 3.1 km/h 3.1 km/h 59 % 0 mm 0.0 W/m2 CLR
02:36 -5.3 °C -9.9 °C 34452.6 hPa West 15 km/h 15 km/h 59 % 0 mm 0.0 W/m2 CLR
02:41 -5.3 °C -9.9 °C 34452.6 hPa West 7.7 km/h 7.7 km/h 59 % 0 mm 0.0 W/m2 CLR
02:46 -5.3 °C -10 °C 34452.6 hPa West 31.1 km/h 31.1 km/h 59 % 0 mm 0.0 W/m2 CLR
02:51 -5.3 °C -10 °C 34452.6 hPa WNW 11.9 km/h 11.9 km/h 59 % 0 mm 0.0 W/m2 CLR
02:56 -5.4 °C -10.1 °C 34442.4 hPa WNW 15.6 km/h 15.6 km/h 59 % 0 mm 0.0 W/m2 CLR
03:01 -5.4 °C -10.1 °C 34442.4 hPa West 9 km/h 9 km/h 59 % 0 mm 0.0 W/m2 CLR
03:06 -5.4 °C -10.1 °C 34442.4 hPa Calm     59 % 0 mm 0.0 W/m2 CLR
03:11 -5.5 °C -10.1 °C 34442.4 hPa West 15 km/h 15 km/h 60 % 0 mm 0.0 W/m2 CLR
03:16 -5.6 °C -10.1 °C 34442.4 hPa Calm     60 % 0 mm 0.0 W/m2 CLR
03:21 -5.6 °C -10.1 °C 34442.4 hPa Calm     60 % 0 mm 0.0 W/m2 CLR
03:26 -5.6 °C -10.1 °C 34442.4 hPa Calm     60 % 0 mm 0.0 W/m2 CLR
03:31 -5.7 °C -10.2 °C 34442.4 hPa WNW 11.9 km/h 11.9 km/h 60 % 0 mm 0.0 W/m2 CLR
03:36 -5.7 °C -10.2 °C 34442.4 hPa West 7.7 km/h 7.7 km/h 60 % 0 mm 0.0 W/m2 CLR
03:41 -5.7 °C -10.3 °C 34442.4 hPa West 15.6 km/h 15.6 km/h 59 % 0 mm 0.0 W/m2 CLR
03:46 -5.7 °C -10.4 °C 34442.4 hPa WNW 20.9 km/h 20.9 km/h 59 % 0 mm 0.0 W/m2 CLR
03:51 -5.7 °C -10.4 °C 34442.4 hPa West 17.9 km/h 17.9 km/h 59 % 0 mm 0.0 W/m2 CLR
03:56 -5.7 °C -10.3 °C 34442.4 hPa WSW 15 km/h 15 km/h 59 % 0 mm 0.0 W/m2 CLR
04:01 -5.7 °C -10.5 °C 34442.4 hPa West 10.3 km/h 10.3 km/h 58 % 0 mm 0.0 W/m2 CLR
04:06 -5.7 °C -10.5 °C 34442.4 hPa West 20.9 km/h 20.9 km/h 58 % 0 mm 0.0 W/m2 CLR
04:12 -5.7 °C -10.4 °C 34442.4 hPa WNW 11.9 km/h 11.9 km/h 59 % 0 mm 0.0 W/m2 CLR
04:17 -5.8 °C -10.4 °C 34442.4 hPa WNW 9 km/h 9 km/h 59 % 0 mm 0.0 W/m2 CLR
04:22 -5.8 °C -10.4 °C 34442.4 hPa West 9 km/h 9 km/h 59 % 0 mm 0.0 W/m2 CLR
04:27 -5.9 °C -10.5 °C 34442.4 hPa Calm     59 % 0 mm 0.0 W/m2 CLR
04:32 -5.9 °C -10.4 °C 34442.4 hPa WNW 9 km/h 9 km/h 60 % 0 mm 0.0 W/m2 CLR
04:37 -5.9 °C -10.4 °C 34442.4 hPa West 3.1 km/h 3.1 km/h 60 % 0 mm 0.0 W/m2 CLR
04:42 -5.9 °C -10.4 °C 34442.4 hPa West 9 km/h 9 km/h 60 % 0 mm 0.0 W/m2 CLR
04:47 -6 °C -10.4 °C 34442.4 hPa West 3.1 km/h   60 % 0 mm 0.0 W/m2 CLR
04:52 -6.1 °C -10.5 °C 34442.4 hPa Calm     60 % 0 mm 0.0 W/m2 CLR
04:57 -6.1 °C -10.6 °C 34442.4 hPa West 10.3 km/h 10.3 km/h 60 % 0 mm 0.0 W/m2 CLR
05:02 -6.1 °C -10.6 °C 34452.6 hPa WSW 15 km/h 15 km/h 60 % 0 mm 0.0 W/m2 CLR
05:07 -6.1 °C -10.4 °C 34452.6 hPa West 6 km/h 6.8 km/h 61 % 0 mm 0.0 W/m2 CLR
05:13 -6.1 °C -10.4 °C 34452.6 hPa West 17.9 km/h 17.9 km/h 61 % 0 mm 0.0 W/m2 CLR
05:18 -6.1 °C -10.4 °C 34452.6 hPa West 29.8 km/h 29.8 km/h 61 % 0 mm 0.0 W/m2 CLR
05:22 -6.1 °C -10.4 °C 34452.6 hPa WNW 23.3 km/h 23.3 km/h 61 % 0 mm 0.0 W/m2 CLR
05:24 -6.2 °C -10.3 °C 34452.6 hPa NW 35.7 km/h 35.7 km/h 62 % 0 mm 0.0 W/m2 CLR
05:27 -6.2 °C -10.4 °C 34462.7 hPa WNW 29.8 km/h 29.8 km/h 62 % 0 mm 0.0 W/m2 CLR
05:32 -6.2 °C -10.4 °C 34462.7 hPa WNW 23.8 km/h 23.8 km/h 62 % 0 mm 0.0 W/m2 CLR
05:37 -6.2 °C -10.4 °C 34462.7 hPa WSW 11.9 km/h 11.9 km/h 62 % 0 mm 0.0 W/m2 CLR
05:42 -6.2 °C -10.4 °C 34462.7 hPa West 31.1 km/h 31.1 km/h 62 % 0 mm 0.0 W/m2 CLR
05:47 -6.2 °C -10.3 °C 34462.7 hPa NW 32.8 km/h 32.8 km/h 63 % 0 mm 0.0 W/m2 CLR
05:52 -6.3 °C -10.3 °C 34462.7 hPa WNW 38.8 km/h 38.8 km/h 63 % 0 mm 0.0 W/m2 CLR
05:57 -6.3 °C -10.4 °C 34462.7 hPa WNW 26.9 km/h 26.9 km/h 63 % 0 mm 0.0 W/m2 CLR
06:02 -6.4 °C -10.3 °C 34462.7 hPa West 29.8 km/h 29.8 km/h 64 % 0 mm 0.0 W/m2 CLR
06:07 -6.4 °C -10.3 °C 34462.7 hPa WNW 15.6 km/h 15.6 km/h 64 % 0 mm 0.0 W/m2 CLR
06:12 -6.4 °C -10.4 °C 34462.7 hPa WSW 29.8 km/h 29.8 km/h 64 % 0 mm 0.0 W/m2 CLR
06:17 -6.5 °C -10.2 °C 34462.7 hPa West 9 km/h 9 km/h 65 % 0 mm 0.0 W/m2 CLR
06:22 -6.5 °C -10.4 °C 34462.7 hPa WSW 9 km/h 9 km/h 64 % 0 mm 0.0 W/m2 CLR
06:27 -6.6 °C -10.3 °C 34462.7 hPa Calm     65 % 0 mm 0.0 W/m2 CLR
06:32 -6.6 °C -10.4 °C 34462.7 hPa Calm     65 % 0 mm 0.0 W/m2 CLR
06:33 -6.6 °C -10.4 °C 34462.7 hPa Calm     65 % 0 mm 0.0 W/m2 CLR
06:38 -6.7 °C -10.3 °C 34476.3 hPa Calm     66 % 0 mm 0.0 W/m2 CLR
06:43 -6.7 °C -10.4 °C 34476.3 hPa Calm     66 % 0 mm 0.0 W/m2 CLR
06:48 -6.8 °C -10.4 °C 34476.3 hPa Calm     66 % 0 mm 0.0 W/m2 CLR
06:53 -6.8 °C -10.4 °C 34476.3 hPa Calm     66 % 0 mm 0.0 W/m2 CLR
06:58 -6.9 °C -10.4 °C 34476.3 hPa West 11.9 km/h 11.9 km/h 67 % 0 mm 0.0 W/m2 CLR
07:03 -6.9 °C -10.4 °C 34486.4 hPa WSW 6 km/h 6 km/h 67 % 0 mm 0.0 W/m2 OVC
07:08 -6.9 °C -10.4 °C 34486.4 hPa Calm     67 % 0 mm 0.0 W/m2 OVC
07:13 -6.9 °C -10.4 °C 34486.4 hPa Calm     67 % 0 mm 0.0 W/m2 OVC
07:18 -6.9 °C -10.4 °C 34486.4 hPa Calm     67 % 0 mm 7.0 W/m2 BKN
07:23 -7 °C -10.4 °C 34486.4 hPa Calm     67 % 0 mm 11.0 W/m2 BKN
07:28 -7 °C -10.5 °C 34486.4 hPa WSW 3.1 km/h 3.1 km/h 67 % 0 mm 12.0 W/m2 BKN
07:33 -7 °C -10.5 °C 34486.4 hPa WSW 10.3 km/h 10.3 km/h 67 % 0 mm 18.0 W/m2 BKN
07:38 -7 °C -10.5 °C 34486.4 hPa Calm     67 % 0 mm 21.0 W/m2 BKN
07:43 -7 °C -10.5 °C 34486.4 hPa WSW 9 km/h 9 km/h 67 % 0 mm 25.0 W/m2 BKN
07:48 -7 °C -10.4 °C 34486.4 hPa SW 9 km/h 9 km/h 68 % 0 mm 32.0 W/m2 BKN
07:53 -7 °C -10.4 °C 34496.6 hPa Calm     67 % 0 mm 35.0 W/m2 BKN
07:58 -6.9 °C -10.4 °C 34486.4 hPa SW 2.6 km/h 2.6 km/h 67 % 0 mm 51.0 W/m2 SCT
08:03 -6.9 °C -10.4 °C 34496.6 hPa Calm     67 % 0 mm 60.0 W/m2 SCT
08:08 -6.8 °C -10.3 °C 34496.6 hPa SW 6 km/h   67 % 0 mm 91.0 W/m2 FEW
08:13 -6.7 °C -10.3 °C 34486.4 hPa SW 11.9 km/h 11.9 km/h 66 % 0 mm 109.0 W/m2 CLR
08:18 -6.6 °C -10.2 °C 34496.6 hPa SW 6 km/h 6 km/h 66 % 0 mm 118.0 W/m2 CLR
08:23 -6.4 °C -10.2 °C 34496.6 hPa WSW 9 km/h 9 km/h 65 % 0 mm 141.0 W/m2 CLR
08:28 -6.3 °C -10.2 °C 34496.6 hPa Calm     64 % 0 mm 162.0 W/m2 CLR
08:33 -6.2 °C -10.1 °C 34496.6 hPa West 20.8 km/h 20.8 km/h 64 % 0 mm 179.0 W/m2 CLR
08:38 -6.1 °C -10.2 °C 34496.6 hPa West 15 km/h 15 km/h 63 % 0 mm 121.0 W/m2 CLR
08:43 -6.1 °C -10.2 °C 34496.6 hPa West 18.2 km/h 18.2 km/h 62 % 0 mm 95.0 W/m2 CLR
08:45 -6.1 °C -10.3 °C 34496.6 hPa WNW 20.9 km/h 20.9 km/h 62 % 0 mm 91.0 W/m2 CLR
08:50 -6.1 °C -10.3 °C 34510.1 hPa West 11.9 km/h 11.9 km/h 62 % 0 mm 139.0 W/m2 CLR
08:55 -6.1 °C -10.3 °C 34496.6 hPa WNW 23.3 km/h 23.3 km/h 62 % 0 mm 153.0 W/m2 CLR
09:00 -6.1 °C -10.2 °C 34496.6 hPa WNW 11.9 km/h 11.9 km/h 62 % 0 mm 142.0 W/m2 CLR
09:05 -5.9 °C -10.2 °C 34510.1 hPa West 20.9 km/h 20.9 km/h 62 % 0 mm 313.0 W/m2 CLR
09:10 -5.8 °C -10.2 °C 34510.1 hPa WNW 20.8 km/h 20.8 km/h 61 % 0 mm 330.0 W/m2 CLR
09:15 -5.7 °C -10.2 °C 34510.1 hPa West 29.8 km/h 29.8 km/h 60 % 0 mm 165.0 W/m2 CLR
09:20 -5.7 °C -10.2 °C 34510.1 hPa WNW 38.8 km/h 38.8 km/h 60 % 0 mm 141.0 W/m2 CLR
09:25 -5.7 °C -10.2 °C 34510.1 hPa West 26.9 km/h 26.9 km/h 60 % 0 mm 211.0 W/m2 CLR
09:30 -5.7 °C -10.2 °C 34510.1 hPa West 20.8 km/h 20.8 km/h 60 % 0 mm 281.0 W/m2 CLR
09:35 -5.7 °C -10.2 °C 34510.1 hPa West 23.8 km/h 23.8 km/h 60 % 0 mm 160.0 W/m2 CLR
09:40 -5.7 °C -10.2 °C 34510.1 hPa WNW 11.9 km/h 12.4 km/h 60 % 0 mm 318.0 W/m2 CLR
09:45 -5.6 °C -10.3 °C 34510.1 hPa WNW 38.8 km/h 38.8 km/h 59 % 0 mm 302.0 W/m2 CLR
09:50 -5.6 °C -10.2 °C 34510.1 hPa NW 29.8 km/h 29.8 km/h 59 % 0 mm 404.0 W/m2 CLR
09:55 -5.4 °C -10.1 °C 34510.1 hPa WNW 31.1 km/h 31.1 km/h 59 % 0 mm 422.0 W/m2 CLR
10:00 -5.4 °C -10.2 °C 34510.1 hPa West 31.1 km/h 31.1 km/h 58 % 0 mm 436.0 W/m2 CLR
10:05 -5.4 °C -10.1 °C 34510.1 hPa West 18.2 km/h 18.2 km/h 59 % 0 mm 299.0 W/m2 CLR
10:10 -5.4 °C -10.2 °C 34510.1 hPa NW 20.9 km/h 20.9 km/h 58 % 0 mm 241.0 W/m2 CLR
10:15 -5.2 °C -10.1 °C 34510.1 hPa WNW 38.8 km/h 38.8 km/h 58 % 0 mm 483.0 W/m2 CLR
10:20 -5.2 °C -10 °C 34510.1 hPa WNW 29.8 km/h 29.8 km/h 58 % 0 mm 503.0 W/m2 CLR
10:25 -5.1 °C -10.1 °C 34510.1 hPa WNW 29.8 km/h 29.8 km/h 57 % 0 mm 508.0 W/m2 CLR
10:30 -5.1 °C -10.2 °C 34510.1 hPa WNW 38.8 km/h 38.8 km/h 56 % 0 mm 503.0 W/m2 CLR
10:35 -5 °C -10.2 °C 34510.1 hPa West 31.1 km/h 31.1 km/h 56 % 0 mm 531.0 W/m2 CLR
10:40 -4.9 °C -10.1 °C 34510.1 hPa NW 38.8 km/h 38.8 km/h 56 % 0 mm 543.0 W/m2 CLR
10:45 -4.8 °C -10.1 °C 34510.1 hPa NNW 20.9 km/h 20.9 km/h 55 % 0 mm 545.0 W/m2 CLR
10:50 -4.7 °C -10.2 °C 34510.1 hPa NW 32.8 km/h 32.8 km/h 54 % 0 mm 564.0 W/m2 CLR
10:55 -4.6 °C -10.1 °C 34510.1 hPa NW 35.7 km/h 35.7 km/h 54 % 0 mm 575.0 W/m2 CLR
11:00 -4.6 °C -10.1 °C 34510.1 hPa WNW 38.8 km/h 38.8 km/h 54 % 0 mm 624.0 W/m2 CLR
11:05 -4.7 °C -10.3 °C 34510.1 hPa WNW 23.8 km/h 23.8 km/h 53 % 0 mm 619.0 W/m2 CLR
11:10 -4.7 °C -10.1 °C 34510.1 hPa West 15.6 km/h 15.6 km/h 54 % 0 mm 629.0 W/m2 CLR
11:15 -4.4 °C -10.1 °C 34510.1 hPa WNW 29.8 km/h   53 % 0 mm 635.0 W/m2 CLR
11:20 -4.3 °C -10.1 °C 34520.3 hPa NNW 29.8 km/h 29.8 km/h 52 % 0 mm 652.0 W/m2 CLR
11:25 -4.2 °C -10 °C 34520.3 hPa West 18.2 km/h 18.2 km/h 52 % 0 mm 664.0 W/m2 CLR
11:30 -4.1 °C -10.2 °C 34520.3 hPa West 35.7 km/h 35.7 km/h 51 % 0 mm 670.0 W/m2 CLR
11:35 -4.2 °C -10.1 °C 34520.3 hPa SSW 15 km/h 15 km/h 52 % 0 mm 673.0 W/m2 CLR
11:40 -4.1 °C -10.2 °C 34510.1 hPa SW 23.8 km/h 23.8 km/h 51 % 0 mm 677.0 W/m2 CLR
11:45 -4.2 °C -10.2 °C 34510.1 hPa West 23.8 km/h 23.8 km/h 51 % 0 mm 694.0 W/m2 CLR
11:50 -4 °C -10.1 °C 34510.1 hPa NNW 10.3 km/h 10.3 km/h 51 % 0 mm 700.0 W/m2 CLR
11:55 -3.8 °C -10.2 °C 34510.1 hPa WNW 32.8 km/h 32.8 km/h 49 % 0 mm 714.0 W/m2 CLR
12:00 -3.6 °C -10.1 °C 34510.1 hPa WNW 25.9 km/h 25.9 km/h 48 % 0 mm 728.0 W/m2 CLR
12:05 -3.6 °C -10.2 °C 34510.1 hPa Calm     48 % 0 mm 749.0 W/m2 CLR
12:10 -3.7 °C -10.2 °C 34510.1 hPa NW 32.8 km/h 32.8 km/h 48 % 0 mm 715.0 W/m2 CLR
12:15 -3.7 °C -10.2 °C 34510.1 hPa West 23.8 km/h 23.8 km/h 48 % 0 mm 786.0 W/m2 CLR
12:20 -3.7 °C -10.2 °C 34510.1 hPa WNW 23.8 km/h 23.8 km/h 48 % 0 mm 729.0 W/m2 CLR
12:25 -3.4 °C -10.3 °C 34510.1 hPa WNW 38.8 km/h 38.8 km/h 46 % 0 mm 740.0 W/m2 CLR
12:30 -3.4 °C -10.2 °C 34510.1 hPa NW 29.8 km/h 29.8 km/h 47 % 0 mm 689.0 W/m2 CLR
12:35 -3.4 °C -10.2 °C 34496.6 hPa NNW 32.8 km/h 32.8 km/h 47 % 0 mm 789.0 W/m2 CLR
12:40 -3.3 °C -10.2 °C 34496.6 hPa WNW 29.8 km/h 29.8 km/h 46 % 0 mm 759.0 W/m2 CLR
12:45 -3.3 °C -10.1 °C 34486.4 hPa NNW 20.9 km/h 20.9 km/h 47 % 0 mm 763.0 W/m2 CLR
12:50 -3.2 °C -10.5 °C 34496.6 hPa NW 20.9 km/h 20.9 km/h 44 % 0 mm 898.0 W/m2 CLR
12:55 -3.1 °C -10.3 °C 34486.4 hPa West 20.9 km/h 20.9 km/h 45 % 0 mm 798.0 W/m2 CLR
12:56 -3.1 °C -10.2 °C 34486.4 hPa NW 29.8 km/h 29.8 km/h 45 % 0 mm 561.0 W/m2 CLR
13:01 -3.1 °C -10.2 °C 34486.4 hPa WNW 29.8 km/h 29.8 km/h 45 % 0 mm 633.0 W/m2 CLR
13:06 -3.1 °C -10.4 °C 34486.4 hPa NW 33.6 km/h 33.6 km/h 44 % 0 mm 837.0 W/m2 CLR
13:11 -2.9 °C -10.5 °C 34486.4 hPa West 15 km/h 15 km/h 43 % 0 mm 700.0 W/m2 CLR
13:16 -2.8 °C -10.4 °C 34486.4 hPa WNW 28.5 km/h 28.5 km/h 43 % 0 mm 849.0 W/m2 CLR
13:21 -2.7 °C -10.4 °C 34486.4 hPa NNW 29.8 km/h 29.8 km/h 42 % 0 mm 844.0 W/m2 CLR
13:26 -2.5 °C -10.5 °C 34486.4 hPa NW 23.8 km/h 23.8 km/h 41 % 0 mm 842.0 W/m2 CLR
13:31 -2.6 °C -10.4 °C 34486.4 hPa NNW 9 km/h 9 km/h 42 % 0 mm 844.0 W/m2 CLR
13:36 -2.6 °C -10.6 °C 34486.4 hPa NW 29.8 km/h 29.8 km/h 41 % 0 mm 844.0 W/m2 CLR
13:41 -2.4 °C -10.4 °C 34486.4 hPa NW 29.8 km/h 29.8 km/h 41 % 0 mm 844.0 W/m2 CLR
13:46 -2.3 °C -10.5 °C 34486.4 hPa NNW 26.9 km/h 26.9 km/h 40 % 0 mm 846.0 W/m2 CLR
13:51 -2.4 °C -10.6 °C 34486.4 hPa North 20.9 km/h 20.9 km/h 40 % 0 mm 849.0 W/m2 CLR
13:53 -2.3 °C -10.6 °C 34476.3 hPa NW 29.8 km/h 29.8 km/h 40 % 0 mm 847.0 W/m2 CLR
13:58 -2.2 °C -10.7 °C 34486.4 hPa WNW 15 km/h 15 km/h 39 % 0 mm 844.0 W/m2 CLR
14:03 -2.1 °C -10.6 °C 34476.3 hPa WNW 28.5 km/h 28.5 km/h 39 % 0 mm 831.0 W/m2 CLR
14:08 -2.1 °C -10.8 °C 34476.3 hPa NW 33.6 km/h 33.6 km/h 38 % 0 mm 844.0 W/m2 CLR
14:13 -2 °C -10.7 °C 34476.3 hPa NNW 23.8 km/h 23.8 km/h 38 % 0 mm 856.0 W/m2 CLR
14:18 -2 °C -10.5 °C 34462.7 hPa North 5.1 km/h 5.1 km/h 39 % 0 mm 837.0 W/m2 CLR
14:23 -1.8 °C -10.4 °C 34462.7 hPa North 29.8 km/h 29.8 km/h 39 % 0 mm 842.0 W/m2 CLR
14:28 -1.8 °C -10.5 °C 34462.7 hPa NW 29.8 km/h 29.8 km/h 38 % 0 mm 875.0 W/m2 CLR
14:33 -1.6 °C -10.6 °C 34476.3 hPa NNE 23.3 km/h 23.3 km/h 37 % 0 mm 872.0 W/m2 CLR
14:38 -1.5 °C -10.5 °C 34462.7 hPa North 15.6 km/h 15.6 km/h 37 % 0 mm 874.0 W/m2 CLR
14:43 -1.4 °C -10.4 °C 34462.7 hPa ENE 9 km/h 9 km/h 37 % 0 mm 868.0 W/m2 CLR
14:48 -1.3 °C -10.5 °C 34462.7 hPa North 29.8 km/h 29.8 km/h 36 % 0 mm 944.0 W/m2 CLR
14:53 -1.1 °C -10.4 °C 34462.7 hPa North 23.8 km/h 23.8 km/h 36 % 0 mm 932.0 W/m2 CLR
14:58 -1.2 °C -10.7 °C 34462.7 hPa WNW 15 km/h 15 km/h 35 % 0 mm 459.0 W/m2 CLR
15:03 -1.4 °C -10.9 °C 34462.7 hPa WNW 6 km/h 6 km/h 35 % 0 mm 564.0 W/m2 CLR
15:08 -1.3 °C -10.8 °C 34462.7 hPa Calm     35 % 0 mm 838.0 W/m2 CLR
15:13 -1.1 °C -10.8 °C 34452.6 hPa West 9 km/h 9 km/h 34 % 0 mm 795.0 W/m2 CLR
15:18 -1 °C -10.5 °C 34452.6 hPa Calm     35 % 0 mm 803.0 W/m2 CLR
15:23 -0.8 °C -10.6 °C 34452.6 hPa NW 9 km/h 9 km/h 34 % 0 mm 812.0 W/m2 CLR
15:28 -0.8 °C -10.6 °C 34452.6 hPa Calm     34 % 0 mm 717.0 W/m2 CLR
15:33 -0.8 °C -10.6 °C 34452.6 hPa North 29.8 km/h 29.8 km/h 34 % 0 mm 703.0 W/m2 CLR
15:38 -1 °C -10.8 °C 34442.4 hPa NW 18.2 km/h 18.2 km/h 34 % 0 mm 675.0 W/m2 CLR
15:43 -1.1 °C -10.6 °C 34442.4 hPa Calm     35 % 0 mm 784.0 W/m2 CLR
15:48 -0.9 °C -10.7 °C 34442.4 hPa NNW 11.9 km/h 11.9 km/h 34 % 0 mm 770.0 W/m2 CLR
15:53 -0.9 °C -10.7 °C 34442.4 hPa Calm     34 % 0 mm 772.0 W/m2 CLR
15:58 -0.7 °C -10.8 °C 34442.4 hPa Calm     33 % 0 mm 717.0 W/m2 CLR
16:03 -0.6 °C -10.7 °C 34442.4 hPa North 7.7 km/h 7.7 km/h 33 % 0 mm 661.0 W/m2 CLR
16:08 -0.6 °C -10.7 °C 34428.8 hPa SSW 9 km/h 9 km/h 33 % 0 mm 682.0 W/m2 CLR
16:13 -0.7 °C -10.7 °C 34428.8 hPa Calm     33 % 0 mm 656.0 W/m2 CLR
16:18 -0.5 °C -10.6 °C 34428.8 hPa Calm     33 % 0 mm 649.0 W/m2 CLR
16:23 -0.4 °C -10.5 °C 34428.8 hPa NNW 29.8 km/h 29.8 km/h 33 % 0 mm 573.0 W/m2 CLR
16:28 -0.3 °C -10.7 °C 34428.8 hPa NNE 15 km/h 15 km/h 32 % 0 mm 659.0 W/m2 CLR
16:33 -0.4 °C -10.8 °C 34428.8 hPa Calm     32 % 0 mm 643.0 W/m2 CLR
16:38 -0.6 °C -10.7 °C 34418.7 hPa ESE 9 km/h 9 km/h 33 % 0 mm 650.0 W/m2 CLR
16:43 -0.5 °C -10.9 °C 34418.7 hPa ENE 11.9 km/h 11.9 km/h 32 % 0 mm 617.0 W/m2 CLR
16:48 -0.4 °C -10.8 °C 34418.7 hPa Calm     32 % 0 mm 519.0 W/m2 CLR
16:53 -0.5 °C -10.9 °C 34418.7 hPa Calm     32 % 0 mm 536.0 W/m2 CLR
16:58 -0.4 °C -10.8 °C 34418.7 hPa Calm     32 % 0 mm 563.0 W/m2 CLR
17:03 -0.4 °C -10.8 °C 34418.7 hPa NNE 17.9 km/h 17.9 km/h 32 % 0 mm 564.0 W/m2 CLR
17:08 -0.4 °C -10.8 °C 34418.7 hPa NNE 9 km/h   32 % 0 mm 483.0 W/m2 CLR
17:13 -0.3 °C -10.7 °C 34418.7 hPa ENE 11.9 km/h 11.9 km/h 32 % 0 mm 610.0 W/m2 CLR
17:18 -0.2 °C -10.7 °C 34418.7 hPa East 9 km/h 9 km/h 32 % 0 mm 577.0 W/m2 CLR
17:23 -0.2 °C -10.9 °C 34418.7 hPa ENE 11.9 km/h 11.9 km/h 31 % 0 mm 592.0 W/m2 CLR
17:28 -0.3 °C -11 °C 34418.7 hPa Calm     31 % 0 mm 512.0 W/m2 CLR
17:29 -0.3 °C -10.7 °C 34418.7 hPa Calm     32 % 0 mm 480.0 W/m2 CLR
17:34 -0.2 °C -10.9 °C 34418.7 hPa ENE 9 km/h 9 km/h 31 % 0 mm 531.0 W/m2 CLR
17:39 -0.1 °C -10.8 °C 34405.1 hPa North 3.1 km/h 3.1 km/h 31 % 0 mm 475.0 W/m2 CLR
17:44 -0.1 °C -10.7 °C 34405.1 hPa North 15 km/h 15 km/h 31 % 0 mm 541.0 W/m2 CLR
18:16 -0.1 °C -10.7 °C 33111.7 hPa Calm     31 % 0 mm 0.0 W/m2 OVC
18:25 -0.1 °C -10.7 °C 33111.7 hPa Calm     31 % 0 mm 0.0 W/m2 OVC
18:30 -0.1 °C -10.7 °C 33111.7 hPa Calm     31 % 0 mm 0.0 W/m2 OVC
18:35 -0.1 °C -10.7 °C 33111.7 hPa Calm     31 % 0 mm 0.0 W/m2 OVC
18:40 -0.1 °C -10.7 °C 33111.7 hPa Calm     31 % 0 mm 0.0 W/m2 OVC
18:45 -0.1 °C -10.7 °C 33111.7 hPa Calm     31 % 0 mm 0.0 W/m2 OVC
18:50 -0.1 °C -10.7 °C 33111.7 hPa Calm     31 % 0 mm 0.0 W/m2 OVC
18:55 -0.1 °C -10.7 °C 33111.7 hPa Calm     31 % 0 mm 0.0 W/m2 OVC
19:00 -0.1 °C -10.7 °C 33111.7 hPa Calm     31 % 0 mm 0.0 W/m2 OVC
19:05 -0.1 °C -10.7 °C 33098.2 hPa Calm     31 % 0 mm 0.0 W/m2 OVC
19:10 -0.1 °C -10.7 °C 33098.2 hPa Calm     31 % 0 mm 0.0 W/m2 OVC
19:15 -0.1 °C -10.7 °C 33111.7 hPa Calm     31 % 0 mm 0.0 W/m2 OVC
19:20 -0.1 °C -10.7 °C 33111.7 hPa Calm     31 % 0 mm 0.0 W/m2 OVC
19:25 -0.1 °C -10.7 °C 33098.2 hPa Calm     31 % 0 mm 0.0 W/m2 OVC
19:30 -0.1 °C -10.7 °C 33111.7 hPa Calm     31 % 0 mm 0.0 W/m2 OVC
19:35 -0.1 °C -10.7 °C 33111.7 hPa Calm     31 % 0 mm 0.0 W/m2 OVC
Lo Temps de Massalio
Compliments of Weather Underground - 1 mb